Cottondale, Alabama
Current Conditions -  °F | °C
As of 6:53 PM on Friday 19 Dec 2014 (Local Time) from KTCL Reporting Station
Light Rain Light Rain  
Wind Chill: 41°   Ceiling: 7000
Heat Index: 44°   Visibility: 6mi
Dew Point: 41°   Wind: 6mph
Humidity: 89%   Direction: 360°N
Pressure: 30.21"   Gusts: NA
Location:  33.19°N, 87.45°W
Report Text: KTCL 200053Z 36005KT 6SM -RA BR OVC070 07/05 A3021 RMK AO2 SLP230 P0003 T00670050
Loading
Personal Weather Stations






























Interactive Weather Map New forecast layout! Learn more

10-Day Weather Forecast

Advertisements
Track Severe Weather on mobile